sensor_id;sensor_type;location;lat;lon;timestamp;pressure;altitude;pressure_sealevel;temperature;humidity
48053;BME280;33824;51.600;5.718;2023-06-22T00:01:59;101678.16;;;20.51;70.92
48053;BME280;33824;51.600;5.718;2023-06-22T00:04:25;101676.94;;;20.47;71.10
48053;BME280;33824;51.600;5.718;2023-06-22T00:06:51;101678.22;;;20.45;71.84
48053;BME280;33824;51.600;5.718;2023-06-22T00:09:16;101683.03;;;20.43;71.85
48053;BME280;33824;51.600;5.718;2023-06-22T00:11:42;101674.72;;;20.38;72.25
48053;BME280;33824;51.600;5.718;2023-06-22T00:14:07;101675.38;;;20.33;72.10
48053;BME280;33824;51.600;5.718;2023-06-22T00:16:33;101678.28;;;20.32;72.25
48053;BME280;33824;51.600;5.718;2023-06-22T00:18:59;101686.84;;;20.29;72.45
48053;BME280;33824;51.600;5.718;2023-06-22T00:21:29;101691.00;;;20.25;72.68
48053;BME280;33824;51.600;5.718;2023-06-22T00:23:55;101689.13;;;20.25;73.27
48053;BME280;33824;51.600;5.718;2023-06-22T00:26:20;101695.19;;;20.21;73.09
48053;BME280;33824;51.600;5.718;2023-06-22T00:28:47;101696.66;;;20.17;73.24
48053;BME280;33824;51.600;5.718;2023-06-22T00:31:12;101690.06;;;20.13;73.58
48053;BME280;33824;51.600;5.718;2023-06-22T00:33:38;101692.97;;;20.11;73.75
48053;BME280;33824;51.600;5.718;2023-06-22T00:36:05;101694.00;;;20.10;74.04
48053;BME280;33824;51.600;5.718;2023-06-22T00:38:31;101695.03;;;20.09;74.83
48053;BME280;33824;51.600;5.718;2023-06-22T00:40:57;101696.31;;;20.06;75.05
48053;BME280;33824;51.600;5.718;2023-06-22T00:43:23;101695.72;;;20.04;75.10
48053;BME280;33824;51.600;5.718;2023-06-22T00:45:51;101690.31;;;20.04;75.02
48053;BME280;33824;51.600;5.718;2023-06-22T00:48:17;101680.50;;;20.03;75.11
48053;BME280;33824;51.600;5.718;2023-06-22T00:50:42;101683.41;;;20.02;75.35
48053;BME280;33824;51.600;5.718;2023-06-22T00:53:08;101681.78;;;20.01;75.63
48053;BME280;33824;51.600;5.718;2023-06-22T00:55:36;101678.66;;;19.97;75.77
48053;BME280;33824;51.600;5.718;2023-06-22T00:58:08;101674.31;;;19.90;75.56
48053;BME280;33824;51.600;5.718;2023-06-22T01:00:36;101672.03;;;19.87;75.95
48053;BME280;33824;51.600;5.718;2023-06-22T01:03:02;101678.94;;;19.83;76.16
48053;BME280;33824;51.600;5.718;2023-06-22T01:05:29;101677.50;;;19.80;76.37
48053;BME280;33824;51.600;5.718;2023-06-22T01:08:08;101671.72;;;19.70;76.71
48053;BME280;33824;51.600;5.718;2023-06-22T01:10:51;101656.94;;;19.66;77.23
48053;BME280;33824;51.600;5.718;2023-06-22T01:13:35;101658.00;;;19.58;77.77
48053;BME280;33824;51.600;5.718;2023-06-22T01:16:12;101668.59;;;19.60;77.87
48053;BME280;33824;51.600;5.718;2023-06-22T01:18:42;101674.41;;;19.63;77.81
48053;BME280;33824;51.600;5.718;2023-06-22T01:21:10;101671.72;;;19.63;78.02
48053;BME280;33824;51.600;5.718;2023-06-22T01:23:51;101669.00;;;19.63;78.08
48053;BME280;33824;51.600;5.718;2023-06-22T01:26:28;101660.50;;;19.53;78.36
48053;BME280;33824;51.600;5.718;2023-06-22T01:28:58;101668.00;;;19.58;78.59
48053;BME280;33824;51.600;5.718;2023-06-22T01:31:27;101664.47;;;19.57;78.82
48053;BME280;33824;51.600;5.718;2023-06-22T01:34:01;101673.22;;;19.53;79.11
48053;BME280;33824;51.600;5.718;2023-06-22T01:36:28;101673.19;;;19.59;79.16
48053;BME280;33824;51.600;5.718;2023-06-22T01:38:55;101670.28;;;19.61;79.31
48053;BME280;33824;51.600;5.718;2023-06-22T01:41:25;101666.53;;;19.62;79.09
48053;BME280;33824;51.600;5.718;2023-06-22T01:43:53;101666.94;;;19.66;79.26
48053;BME280;33824;51.600;5.718;2023-06-22T01:46:18;101656.09;;;19.66;79.16
48053;BME280;33824;51.600;5.718;2023-06-22T01:48:45;101661.72;;;19.64;79.60
48053;BME280;33824;51.600;5.718;2023-06-22T01:51:11;101655.06;;;19.60;79.93
48053;BME280;33824;51.600;5.718;2023-06-22T01:53:37;101655.31;;;19.58;80.35
48053;BME280;33824;51.600;5.718;2023-06-22T01:56:03;101654.06;;;19.54;80.29
48053;BME280;33824;51.600;5.718;2023-06-22T01:58:29;101658.00;;;19.52;80.43
48053;BME280;33824;51.600;5.718;2023-06-22T02:01:02;101652.84;;;19.50;80.44
48053;BME280;33824;51.600;5.718;2023-06-22T02:03:34;101650.13;;;19.50;80.20
48053;BME280;33824;51.600;5.718;2023-06-22T02:06:05;101652.19;;;19.48;80.19
48053;BME280;33824;51.600;5.718;2023-06-22T02:08:38;101651.41;;;19.48;80.22
48053;BME280;33824;51.600;5.718;2023-06-22T02:11:06;101655.53;;;19.50;80.27
48053;BME280;33824;51.600;5.718;2023-06-22T02:13:33;101650.72;;;19.52;80.47
48053;BME280;33824;51.600;5.718;2023-06-22T02:16:00;101654.91;;;19.55;80.60
48053;BME280;33824;51.600;5.718;2023-06-22T02:18:26;101651.13;;;19.56;80.54
48053;BME280;33824;51.600;5.718;2023-06-22T02:20:51;101647.81;;;19.54;80.92
48053;BME280;33824;51.600;5.718;2023-06-22T02:23:18;101646.16;;;19.53;80.65
48053;BME280;33824;51.600;5.718;2023-06-22T02:25:43;101642.00;;;19.50;80.93
48053;BME280;33824;51.600;5.718;2023-06-22T02:28:09;101645.75;;;19.49;81.13
48053;BME280;33824;51.600;5.718;2023-06-22T02:30:35;101649.50;;;19.48;81.40
48053;BME280;33824;51.600;5.718;2023-06-22T02:33:01;101644.31;;;19.47;81.74
48053;BME280;33824;51.600;5.718;2023-06-22T02:35:28;101637.44;;;19.44;81.71
48053;BME280;33824;51.600;5.718;2023-06-22T02:38:00;101636.00;;;19.42;82.12
48053;BME280;33824;51.600;5.718;2023-06-22T02:40:26;101633.31;;;19.42;82.40
48053;BME280;33824;51.600;5.718;2023-06-22T02:42:52;101631.81;;;19.39;82.36
48053;BME280;33824;51.600;5.718;2023-06-22T02:45:17;101629.56;;;19.36;82.69
48053;BME280;33824;51.600;5.718;2023-06-22T02:47:44;101627.69;;;19.30;83.09
48053;BME280;33824;51.600;5.718;2023-06-22T02:50:10;101622.50;;;19.29;83.08
48053;BME280;33824;51.600;5.718;2023-06-22T02:52:35;101636.22;;;19.27;83.15
48053;BME280;33824;51.600;5.718;2023-06-22T02:55:01;101633.13;;;19.24;83.16
48053;BME280;33824;51.600;5.718;2023-06-22T02:57:27;101621.91;;;19.20;82.90
48053;BME280;33824;51.600;5.718;2023-06-22T02:59:52;101631.44;;;19.23;82.82
48053;BME280;33824;51.600;5.718;2023-06-22T03:02:18;101621.66;;;19.22;82.85
48053;BME280;33824;51.600;5.718;2023-06-22T03:04:46;101630.59;;;19.22;82.30
48053;BME280;33824;51.600;5.718;2023-06-22T03:07:15;101632.28;;;19.23;82.66
48053;BME280;33824;51.600;5.718;2023-06-22T03:09:42;101623.34;;;19.23;82.58
48053;BME280;33824;51.600;5.718;2023-06-22T03:12:08;101616.50;;;19.20;82.64
48053;BME280;33824;51.600;5.718;2023-06-22T03:14:34;101616.09;;;19.16;82.77
48053;BME280;33824;51.600;5.718;2023-06-22T03:17:00;101604.63;;;19.14;83.09
48053;BME280;33824;51.600;5.718;2023-06-22T03:19:29;101599.47;;;19.13;83.12
48053;BME280;33824;51.600;5.718;2023-06-22T03:21:58;101604.47;;;19.09;83.01
48053;BME280;33824;51.600;5.718;2023-06-22T03:24:24;101607.56;;;19.06;83.24
48053;BME280;33824;51.600;5.718;2023-06-22T03:26:50;101601.34;;;19.06;83.09
48053;BME280;33824;51.600;5.718;2023-06-22T03:29:15;101596.97;;;19.05;83.36
48053;BME280;33824;51.600;5.718;2023-06-22T03:31:41;101605.09;;;19.05;83.25
48053;BME280;33824;51.600;5.718;2023-06-22T03:34:06;101607.16;;;19.03;83.47
48053;BME280;33824;51.600;5.718;2023-06-22T03:36:32;101602.81;;;19.02;83.73
48053;BME280;33824;51.600;5.718;2023-06-22T03:38:57;101601.34;;;18.99;84.14
48053;BME280;33824;51.600;5.718;2023-06-22T03:41:23;101605.31;;;18.97;84.56
48053;BME280;33824;51.600;5.718;2023-06-22T03:43:48;101599.25;;;18.95;84.64
48053;BME280;33824;51.600;5.718;2023-06-22T03:46:14;101597.00;;;18.92;85.04
48053;BME280;33824;51.600;5.718;2023-06-22T03:48:40;101603.47;;;18.91;84.74
48053;BME280;33824;51.600;5.718;2023-06-22T03:51:06;101594.91;;;18.87;84.93
48053;BME280;33824;51.600;5.718;2023-06-22T03:53:31;101594.72;;;18.82;85.19
48053;BME280;33824;51.600;5.718;2023-06-22T03:55:57;101589.31;;;18.82;84.88
48053;BME280;33824;51.600;5.718;2023-06-22T03:58:22;101599.31;;;18.82;85.02
48053;BME280;33824;51.600;5.718;2023-06-22T04:00:49;101596.78;;;18.80;84.96
48053;BME280;33824;51.600;5.718;2023-06-22T04:03:15;101591.81;;;18.77;85.34
48053;BME280;33824;51.600;5.718;2023-06-22T04:05:41;101594.09;;;18.74;85.82
48053;BME280;33824;51.600;5.718;2023-06-22T04:08:07;101586.19;;;18.72;86.72
48053;BME280;33824;51.600;5.718;2023-06-22T04:10:33;101587.44;;;18.76;86.43
48053;BME280;33824;51.600;5.718;2023-06-22T04:12:59;101589.94;;;18.78;87.07
48053;BME280;33824;51.600;5.718;2023-06-22T04:15:25;101593.47;;;18.85;86.67
48053;BME280;33824;51.600;5.718;2023-06-22T04:17:51;101597.22;;;18.90;86.37
48053;BME280;33824;51.600;5.718;2023-06-22T04:20:17;101588.69;;;18.93;85.93
48053;BME280;33824;51.600;5.718;2023-06-22T04:22:42;101587.41;;;18.96;85.92
48053;BME280;33824;51.600;5.718;2023-06-22T04:25:08;101587.22;;;18.97;86.25
48053;BME280;33824;51.600;5.718;2023-06-22T04:27:34;101578.69;;;19.00;86.13
48053;BME280;33824;51.600;5.718;2023-06-22T04:30:07;101578.25;;;19.03;86.19
48053;BME280;33824;51.600;5.718;2023-06-22T04:32:34;101578.22;;;19.10;85.72
48053;BME280;33824;51.600;5.718;2023-06-22T04:35:05;101576.75;;;19.14;86.12
48053;BME280;33824;51.600;5.718;2023-06-22T04:37:31;101572.84;;;19.16;86.56
48053;BME280;33824;51.600;5.718;2023-06-22T04:39:57;101575.53;;;19.16;86.77
48053;BME280;33824;51.600;5.718;2023-06-22T04:42:22;101579.47;;;19.21;87.05
48053;BME280;33824;51.600;5.718;2023-06-22T04:44:48;101581.72;;;19.30;86.56
48053;BME280;33824;51.600;5.718;2023-06-22T04:47:13;101579.81;;;19.37;86.75
48053;BME280;33824;51.600;5.718;2023-06-22T04:49:39;101576.50;;;19.42;86.70
48053;BME280;33824;51.600;5.718;2023-06-22T04:52:09;101583.34;;;19.51;86.46
48053;BME280;33824;51.600;5.718;2023-06-22T04:54:36;101586.59;;;19.59;86.40
48053;BME280;33824;51.600;5.718;2023-06-22T04:57:04;101580.31;;;19.72;86.14
48053;BME280;33824;51.600;5.718;2023-06-22T04:59:30;101581.28;;;19.84;85.62
48053;BME280;33824;51.600;5.718;2023-06-22T05:02:01;101575.19;;;19.95;85.65
48053;BME280;33824;51.600;5.718;2023-06-22T05:04:28;101575.75;;;20.04;85.22
48053;BME280;33824;51.600;5.718;2023-06-22T05:06:56;101585.25;;;20.13;85.09
48053;BME280;33824;51.600;5.718;2023-06-22T05:09:23;101584.34;;;20.26;84.79
48053;BME280;33824;51.600;5.718;2023-06-22T05:11:50;101577.28;;;20.31;84.76
48053;BME280;33824;51.600;5.718;2023-06-22T05:14:16;101580.38;;;20.35;84.58
48053;BME280;33824;51.600;5.718;2023-06-22T05:16:42;101581.34;;;20.40;84.83
48053;BME280;33824;51.600;5.718;2023-06-22T05:19:08;101579.19;;;20.49;84.41
48053;BME280;33824;51.600;5.718;2023-06-22T05:21:34;101584.94;;;20.59;84.16
48053;BME280;33824;51.600;5.718;2023-06-22T05:24:00;101583.63;;;20.68;84.19
48053;BME280;33824;51.600;5.718;2023-06-22T05:26:32;101580.75;;;20.81;83.71
48053;BME280;33824;51.600;5.718;2023-06-22T05:28:59;101583.66;;;21.04;83.55
48053;BME280;33824;51.600;5.718;2023-06-22T05:31:26;101584.03;;;21.15;83.23
48053;BME280;33824;51.600;5.718;2023-06-22T05:33:53;101588.97;;;21.18;82.74
48053;BME280;33824;51.600;5.718;2023-06-22T05:36:19;101588.91;;;21.24;82.42
48053;BME280;33824;51.600;5.718;2023-06-22T05:38:51;101597.03;;;21.42;82.82
48053;BME280;33824;51.600;5.718;2023-06-22T05:41:17;101606.38;;;21.46;82.77
48053;BME280;33824;51.600;5.718;2023-06-22T05:43:43;101597.19;;;21.47;82.47
48053;BME280;33824;51.600;5.718;2023-06-22T05:46:08;101596.34;;;21.47;82.40
48053;BME280;33824;51.600;5.718;2023-06-22T05:48:34;101588.66;;;21.44;82.20
48053;BME280;33824;51.600;5.718;2023-06-22T05:51:00;101588.22;;;21.47;82.65
48053;BME280;33824;51.600;5.718;2023-06-22T05:53:25;101580.44;;;21.50;82.75
48053;BME280;33824;51.600;5.718;2023-06-22T05:55:54;101581.53;;;21.49;82.73
48053;BME280;33824;51.600;5.718;2023-06-22T05:58:19;101582.47;;;21.55;82.88
48053;BME280;33824;51.600;5.718;2023-06-22T06:00:45;101581.34;;;21.63;82.78
48053;BME280;33824;51.600;5.718;2023-06-22T06:03:11;101583.72;;;21.71;82.78
48053;BME280;33824;51.600;5.718;2023-06-22T06:05:37;101576.41;;;21.71;82.81
48053;BME280;33824;51.600;5.718;2023-06-22T06:08:05;101578.00;;;21.79;82.46
48053;BME280;33824;51.600;5.718;2023-06-22T06:10:31;101581.06;;;21.82;82.68
48053;BME280;33824;51.600;5.718;2023-06-22T06:12:58;101578.09;;;21.84;83.26
48053;BME280;33824;51.600;5.718;2023-06-22T06:15:23;101581.16;;;21.94;82.91
48053;BME280;33824;51.600;5.718;2023-06-22T06:17:51;101571.84;;;22.02;82.77
48053;BME280;33824;51.600;5.718;2023-06-22T06:20:20;101571.38;;;22.05;82.06
48053;BME280;33824;51.600;5.718;2023-06-22T06:22:46;101574.22;;;22.10;81.81
48053;BME280;33824;51.600;5.718;2023-06-22T06:25:12;101575.28;;;22.09;81.51
48053;BME280;33824;51.600;5.718;2023-06-22T06:27:42;101562.78;;;22.19;81.31
48053;BME280;33824;51.600;5.718;2023-06-22T06:30:10;101568.56;;;22.23;80.87
48053;BME280;33824;51.600;5.718;2023-06-22T06:32:36;101565.38;;;22.26;80.94
48053;BME280;33824;51.600;5.718;2023-06-22T06:35:01;101561.16;;;22.30;80.98
48053;BME280;33824;51.600;5.718;2023-06-22T06:37:27;101559.63;;;22.34;80.84
48053;BME280;33824;51.600;5.718;2023-06-22T06:39:53;101570.63;;;22.39;80.56
48053;BME280;33824;51.600;5.718;2023-06-22T06:42:18;101571.34;;;22.46;80.14
48053;BME280;33824;51.600;5.718;2023-06-22T06:44:45;101573.47;;;22.44;80.10
48053;BME280;33824;51.600;5.718;2023-06-22T06:47:10;101560.00;;;22.61;79.59
48053;BME280;33824;51.600;5.718;2023-06-22T06:49:36;101570.88;;;22.61;79.64
48053;BME280;33824;51.600;5.718;2023-06-22T06:52:02;101556.44;;;22.60;79.76
48053;BME280;33824;51.600;5.718;2023-06-22T06:54:28;101556.69;;;22.59;79.31
48053;BME280;33824;51.600;5.718;2023-06-22T06:56:53;101558.00;;;22.68;79.21
48053;BME280;33824;51.600;5.718;2023-06-22T06:59:19;101557.31;;;22.72;78.75
48053;BME280;33824;51.600;5.718;2023-06-22T07:01:44;101558.00;;;22.79;78.44
48053;BME280;33824;51.600;5.718;2023-06-22T07:04:10;101560.63;;;22.86;78.30
48053;BME280;33824;51.600;5.718;2023-06-22T07:06:36;101564.28;;;22.91;78.13
48053;BME280;33824;51.600;5.718;2023-06-22T07:09:01;101561.91;;;22.95;77.91
48053;BME280;33824;51.600;5.718;2023-06-22T07:11:28;101560.38;;;22.99;78.05
48053;BME280;33824;51.600;5.718;2023-06-22T07:13:54;101554.34;;;23.09;78.22
48053;BME280;33824;51.600;5.718;2023-06-22T07:16:19;101549.31;;;23.17;78.08
48053;BME280;33824;51.600;5.718;2023-06-22T07:18:45;101553.56;;;23.25;77.44
48053;BME280;33824;51.600;5.718;2023-06-22T07:21:11;101548.38;;;23.23;77.54
48053;BME280;33824;51.600;5.718;2023-06-22T07:23:36;101548.00;;;23.31;77.03
48053;BME280;33824;51.600;5.718;2023-06-22T07:26:02;101538.63;;;23.39;76.85
48053;BME280;33824;51.600;5.718;2023-06-22T07:28:28;101544.19;;;23.44;76.62
48053;BME280;33824;51.600;5.718;2023-06-22T07:30:57;101532.03;;;23.47;76.53
48053;BME280;33824;51.600;5.718;2023-06-22T07:33:22;101533.59;;;23.59;76.38
48053;BME280;33824;51.600;5.718;2023-06-22T07:35:48;101536.53;;;23.69;75.80
48053;BME280;33824;51.600;5.718;2023-06-22T07:38:13;101532.94;;;23.80;75.58
48053;BME280;33824;51.600;5.718;2023-06-22T07:40:40;101531.22;;;23.91;75.03
48053;BME280;33824;51.600;5.718;2023-06-22T07:43:07;101532.38;;;23.95;74.92
48053;BME280;33824;51.600;5.718;2023-06-22T07:45:32;101530.31;;;24.02;74.62
48053;BME280;33824;51.600;5.718;2023-06-22T07:48:00;101531.88;;;23.98;74.52
48053;BME280;33824;51.600;5.718;2023-06-22T07:50:26;101520.97;;;23.98;73.59
48053;BME280;33824;51.600;5.718;2023-06-22T07:52:51;101522.88;;;23.98;74.00
48053;BME280;33824;51.600;5.718;2023-06-22T07:55:18;101519.25;;;23.92;73.40
48053;BME280;33824;51.600;5.718;2023-06-22T07:57:44;101509.50;;;23.96;73.70
48053;BME280;33824;51.600;5.718;2023-06-22T08:00:10;101499.94;;;24.10;73.76
48053;BME280;33824;51.600;5.718;2023-06-22T08:02:40;101494.94;;;24.19;73.15
48053;BME280;33824;51.600;5.718;2023-06-22T08:05:07;101485.94;;;24.18;73.33
48053;BME280;33824;51.600;5.718;2023-06-22T08:07:34;101476.53;;;24.26;73.36
48053;BME280;33824;51.600;5.718;2023-06-22T08:10:03;101481.78;;;24.32;72.93
48053;BME280;33824;51.600;5.718;2023-06-22T08:12:28;101472.13;;;24.25;72.78
48053;BME280;33824;51.600;5.718;2023-06-22T08:14:54;101471.56;;;24.23;72.29
48053;BME280;33824;51.600;5.718;2023-06-22T08:17:19;101465.22;;;24.17;72.31
48053;BME280;33824;51.600;5.718;2023-06-22T08:19:45;101461.75;;;24.22;72.35
48053;BME280;33824;51.600;5.718;2023-06-22T08:22:11;101456.69;;;24.30;72.50
48053;BME280;33824;51.600;5.718;2023-06-22T08:24:36;101454.13;;;24.41;71.66
48053;BME280;33824;51.600;5.718;2023-06-22T08:27:02;101448.25;;;24.32;71.78
48053;BME280;33824;51.600;5.718;2023-06-22T08:29:28;101450.84;;;24.39;71.64
48053;BME280;33824;51.600;5.718;2023-06-22T08:31:53;101456.00;;;24.40;71.23
48053;BME280;33824;51.600;5.718;2023-06-22T08:34:19;101462.44;;;24.51;71.14
48053;BME280;33824;51.600;5.718;2023-06-22T08:36:48;101454.66;;;24.59;71.55
48053;BME280;33824;51.600;5.718;2023-06-22T08:39:18;101447.38;;;24.65;70.61
48053;BME280;33824;51.600;5.718;2023-06-22T08:41:43;101445.81;;;24.69;70.41
48053;BME280;33824;51.600;5.718;2023-06-22T08:44:10;101439.78;;;24.89;70.17
48053;BME280;33824;51.600;5.718;2023-06-22T08:46:35;101446.00;;;25.06;69.93
48053;BME280;33824;51.600;5.718;2023-06-22T08:49:02;101436.84;;;25.17;69.45
48053;BME280;33824;51.600;5.718;2023-06-22T08:51:27;101443.00;;;25.29;69.69
48053;BME280;33824;51.600;5.718;2023-06-22T08:53:57;101441.09;;;25.29;69.03
48053;BME280;33824;51.600;5.718;2023-06-22T08:56:22;101439.84;;;25.42;69.80
48053;BME280;33824;51.600;5.718;2023-06-22T08:58:48;101424.97;;;25.28;68.30
48053;BME280;33824;51.600;5.718;2023-06-22T09:01:13;101431.50;;;25.27;68.82
48053;BME280;33824;51.600;5.718;2023-06-22T09:03:41;101430.94;;;25.25;68.68
48053;BME280;33824;51.600;5.718;2023-06-22T09:06:06;101427.84;;;25.16;68.40
48053;BME280;33824;51.600;5.718;2023-06-22T09:08:35;101428.59;;;25.12;68.51
48053;BME280;33824;51.600;5.718;2023-06-22T09:11:01;101430.50;;;25.11;68.94
48053;BME280;33824;51.600;5.718;2023-06-22T09:13:29;101436.53;;;25.13;68.68
48053;BME280;33824;51.600;5.718;2023-06-22T09:15:55;101437.22;;;25.04;68.82
48053;BME280;33824;51.600;5.718;2023-06-22T09:18:21;101437.22;;;25.04;68.97
48053;BME280;33824;51.600;5.718;2023-06-22T09:20:46;101432.19;;;24.91;68.98
48053;BME280;33824;51.600;5.718;2023-06-22T09:23:12;101438.97;;;24.88;68.94
48053;BME280;33824;51.600;5.718;2023-06-22T09:25:37;101430.47;;;24.84;69.02
48053;BME280;33824;51.600;5.718;2023-06-22T09:28:03;101422.88;;;24.70;69.11
48053;BME280;33824;51.600;5.718;2023-06-22T09:30:28;101424.47;;;24.66;69.21
48053;BME280;33824;51.600;5.718;2023-06-22T09:32:54;101425.09;;;24.51;70.24
48053;BME280;33824;51.600;5.718;2023-06-22T09:35:20;101428.66;;;24.52;69.72
48053;BME280;33824;51.600;5.718;2023-06-22T09:37:45;101421.81;;;24.49;69.97
48053;BME280;33824;51.600;5.718;2023-06-22T09:40:11;101422.88;;;24.48;69.94
48053;BME280;33824;51.600;5.718;2023-06-22T09:42:39;101429.06;;;24.44;70.04
48053;BME280;33824;51.600;5.718;2023-06-22T09:45:05;101421.31;;;24.35;70.42
48053;BME280;33824;51.600;5.718;2023-06-22T09:47:31;101422.66;;;24.33;69.99
48053;BME280;33824;51.600;5.718;2023-06-22T09:49:56;101416.47;;;24.21;70.49
48053;BME280;33824;51.600;5.718;2023-06-22T09:52:24;101421.09;;;24.20;70.60
48053;BME280;33824;51.600;5.718;2023-06-22T09:54:50;101417.91;;;24.23;70.64
48053;BME280;33824;51.600;5.718;2023-06-22T09:57:15;101423.34;;;24.23;70.77
48053;BME280;33824;51.600;5.718;2023-06-22T09:59:41;101422.03;;;24.26;70.52
48053;BME280;33824;51.600;5.718;2023-06-22T10:02:07;101419.69;;;24.34;70.37
48053;BME280;33824;51.600;5.718;2023-06-22T10:04:34;101406.13;;;24.40;70.03
48053;BME280;33824;51.600;5.718;2023-06-22T10:07:01;101421.41;;;24.41;70.00
48053;BME280;33824;51.600;5.718;2023-06-22T10:09:27;101411.25;;;24.36;69.87
48053;BME280;33824;51.600;5.718;2023-06-22T10:11:52;101407.13;;;24.33;69.15
48053;BME280;33824;51.600;5.718;2023-06-22T10:14:18;101411.00;;;24.38;69.64
48053;BME280;33824;51.600;5.718;2023-06-22T10:16:44;101403.16;;;24.41;69.42
48053;BME280;33824;51.600;5.718;2023-06-22T10:19:09;101402.88;;;24.43;69.29
48053;BME280;33824;51.600;5.718;2023-06-22T10:21:35;101393.00;;;24.36;69.28
48053;BME280;33824;51.600;5.718;2023-06-22T10:24:01;101395.50;;;24.38;69.29
48053;BME280;33824;51.600;5.718;2023-06-22T10:26:32;101393.66;;;24.44;69.38
48053;BME280;33824;51.600;5.718;2023-06-22T10:28:58;101390.41;;;24.47;69.08
48053;BME280;33824;51.600;5.718;2023-06-22T10:31:25;101400.00;;;24.49;69.29
48053;BME280;33824;51.600;5.718;2023-06-22T10:33:50;101390.56;;;24.57;69.62
48053;BME280;33824;51.600;5.718;2023-06-22T10:36:16;101391.94;;;24.59;69.56
48053;BME280;33824;51.600;5.718;2023-06-22T10:38:41;101395.06;;;24.68;69.48
48053;BME280;33824;51.600;5.718;2023-06-22T10:41:07;101386.38;;;24.71;69.37
48053;BME280;33824;51.600;5.718;2023-06-22T10:43:32;101390.53;;;24.78;69.29
48053;BME280;33824;51.600;5.718;2023-06-22T10:45:58;101385.03;;;24.73;69.03
48053;BME280;33824;51.600;5.718;2023-06-22T10:48:23;101397.84;;;24.73;68.83
48053;BME280;33824;51.600;5.718;2023-06-22T10:50:49;101397.59;;;24.74;69.00
48053;BME280;33824;51.600;5.718;2023-06-22T10:53:14;101405.53;;;24.76;68.66
48053;BME280;33824;51.600;5.718;2023-06-22T10:55:40;101409.63;;;24.78;68.61
48053;BME280;33824;51.600;5.718;2023-06-22T10:58:06;101407.75;;;24.79;68.50
48053;BME280;33824;51.600;5.718;2023-06-22T11:00:31;101423.59;;;24.82;68.37
48053;BME280;33824;51.600;5.718;2023-06-22T11:02:57;101434.91;;;24.91;67.63
48053;BME280;33824;51.600;5.718;2023-06-22T11:05:24;101440.22;;;24.80;67.80
48053;BME280;33824;51.600;5.718;2023-06-22T11:07:49;101444.09;;;24.84;67.64
48053;BME280;33824;51.600;5.718;2023-06-22T11:10:15;101450.38;;;24.85;68.20
48053;BME280;33824;51.600;5.718;2023-06-22T11:12:40;101456.13;;;24.67;68.09
48053;BME280;33824;51.600;5.718;2023-06-22T11:15:08;101457.16;;;24.44;68.59
48053;BME280;33824;51.600;5.718;2023-06-22T11:17:34;101467.38;;;24.15;69.40
48053;BME280;33824;51.600;5.718;2023-06-22T11:20:01;101471.06;;;23.93;70.70
48053;BME280;33824;51.600;5.718;2023-06-22T11:22:26;101471.81;;;23.60;71.37
48053;BME280;33824;51.600;5.718;2023-06-22T11:24:52;101472.59;;;23.15;73.25
48053;BME280;33824;51.600;5.718;2023-06-22T11:27:17;101482.72;;;22.80;74.62
48053;BME280;33824;51.600;5.718;2023-06-22T11:29:43;101476.91;;;22.53;76.44
48053;BME280;33824;51.600;5.718;2023-06-22T11:32:09;101472.09;;;22.43;78.00
48053;BME280;33824;51.600;5.718;2023-06-22T11:34:34;101469.25;;;22.38;79.23
48053;BME280;33824;51.600;5.718;2023-06-22T11:37:00;101470.06;;;22.16;80.18
48053;BME280;33824;51.600;5.718;2023-06-22T11:39:26;101462.16;;;21.91;81.64
48053;BME280;33824;51.600;5.718;2023-06-22T11:41:51;101466.34;;;21.75;82.51
48053;BME280;33824;51.600;5.718;2023-06-22T11:44:17;101464.88;;;21.73;83.62
48053;BME280;33824;51.600;5.718;2023-06-22T11:46:42;101473.81;;;21.62;83.44
48053;BME280;33824;51.600;5.718;2023-06-22T11:49:08;101476.44;;;21.57;84.79
48053;BME280;33824;51.600;5.718;2023-06-22T11:51:34;101466.94;;;21.47;85.56
48053;BME280;33824;51.600;5.718;2023-06-22T11:53:59;101450.69;;;21.18;91.44
48053;BME280;33824;51.600;5.718;2023-06-22T11:56:25;101446.53;;;20.97;92.17
48053;BME280;33824;51.600;5.718;2023-06-22T11:58:51;101443.75;;;20.85;93.03
48053;BME280;33824;51.600;5.718;2023-06-22T12:01:16;101432.91;;;20.67;96.94
48053;BME280;33824;51.600;5.718;2023-06-22T12:03:42;101409.22;;;20.44;100.00
48053;BME280;33824;51.600;5.718;2023-06-22T12:06:10;101387.63;;;20.38;100.00
48053;BME280;33824;51.600;5.718;2023-06-22T12:08:37;101368.66;;;20.38;100.00
48053;BME280;33824;51.600;5.718;2023-06-22T12:11:02;101376.88;;;20.31;100.00
48053;BME280;33824;51.600;5.718;2023-06-22T12:13:31;101387.69;;;20.31;100.00
48053;BME280;33824;51.600;5.718;2023-06-22T12:15:56;101391.63;;;20.35;100.00
48053;BME280;33824;51.600;5.718;2023-06-22T12:18:22;101385.75;;;20.38;100.00
48053;BME280;33824;51.600;5.718;2023-06-22T12:20:48;101383.88;;;20.39;100.00
48053;BME280;33824;51.600;5.718;2023-06-22T12:23:14;101378.50;;;20.32;100.00
48053;BME280;33824;51.600;5.718;2023-06-22T12:25:40;101375.78;;;20.32;100.00
48053;BME280;33824;51.600;5.718;2023-06-22T12:28:05;101368.75;;;20.31;100.00
48053;BME280;33824;51.600;5.718;2023-06-22T12:30:33;101361.00;;;20.35;100.00
48053;BME280;33824;51.600;5.718;2023-06-22T12:32:58;101354.13;;;20.32;100.00
48053;BME280;33824;51.600;5.718;2023-06-22T12:35:24;101355.78;;;20.33;100.00
48053;BME280;33824;51.600;5.718;2023-06-22T12:37:50;101349.38;;;20.28;100.00
48053;BME280;33824;51.600;5.718;2023-06-22T12:40:15;101349.31;;;20.16;100.00
48053;BME280;33824;51.600;5.718;2023-06-22T12:42:41;101345.44;;;20.05;100.00
48053;BME280;33824;51.600;5.718;2023-06-22T12:45:08;101346.06;;;20.07;100.00
48053;BME280;33824;51.600;5.718;2023-06-22T12:47:34;101354.47;;;20.18;100.00